Terminal Aerodrome Forecast
Issued by NWS

Home | Current Version | Previous Version | Text Only | Print | Product List | Glossary On
Versions: 1 2 3 4 5 6 7 8 9 10 11 12 13 14 15 16 17
000
FTAK31 PAFA 231421 AAA
TAFASC
TAF AMD
PASC 231421Z 2314/2412 21012KT P6SM -SN OVC030
     FM232200 20008KT 4SM -SN BR BKN035 OVC060
     FM241000 17009KT 4SM -SN BR BKN015 OVC035=

USA.gov is the U.S. government's official web portal to all federal, state and local government web resources and services.